createdAt,value
2019-03-12T00:00:44.178Z,74.90
2019-03-12T00:03:13.372Z,74.90
2019-03-12T00:05:42.603Z,75.10
2019-03-12T00:08:11.809Z,75.20
2019-03-12T00:10:41.053Z,75.40
2019-03-12T00:13:10.251Z,75.40
2019-03-12T00:15:40.555Z,75.30
2019-03-12T00:18:09.759Z,75.00
2019-03-12T00:20:38.981Z,74.80
2019-03-12T00:23:08.448Z,74.40
2019-03-12T00:25:37.676Z,74.00
2019-03-12T00:28:06.880Z,73.80
2019-03-12T00:30:36.100Z,73.60
2019-03-12T00:33:05.371Z,73.60
2019-03-12T00:35:34.599Z,73.90
2019-03-12T00:38:03.793Z,74.10
2019-03-12T00:40:33.020Z,74.40
2019-03-12T00:43:02.225Z,74.60
2019-03-12T00:45:31.467Z,75.00
2019-03-12T00:48:00.672Z,75.20
2019-03-12T00:50:29.958Z,75.40
2019-03-12T00:52:59.165Z,75.60
2019-03-12T00:55:28.391Z,75.60
2019-03-12T00:57:57.588Z,75.70
2019-03-12T01:00:27.194Z,75.60
2019-03-12T01:02:56.392Z,75.60
2019-03-12T01:05:25.620Z,75.30
2019-03-12T01:07:54.848Z,75.20
2019-03-12T01:10:24.049Z,75.60
2019-03-12T01:12:53.273Z,75.60
2019-03-12T01:15:22.644Z,75.70
2019-03-12T01:17:51.868Z,75.90
2019-03-12T01:20:21.104Z,76.40
2019-03-12T01:22:50.308Z,76.70
2019-03-12T01:25:19.532Z,76.90
2019-03-12T01:27:48.731Z,76.90
2019-03-12T01:30:18.588Z,77.20
2019-03-12T01:32:47.855Z,77.20
2019-03-12T01:35:17.062Z,77.30
2019-03-12T01:37:46.315Z,77.30
2019-03-12T01:40:15.509Z,77.30
2019-03-12T01:42:44.718Z,77.30
2019-03-12T01:45:14.665Z,77.30
2019-03-12T01:47:43.904Z,77.40
2019-03-12T01:50:14.245Z,77.70
2019-03-12T01:52:43.602Z,78.00
2019-03-12T01:55:19.209Z,78.50
2019-03-12T01:57:48.427Z,78.80
2019-03-12T02:00:18.824Z,79.00
2019-03-12T02:02:48.047Z,79.30
2019-03-12T02:05:17.270Z,79.50
2019-03-12T02:07:46.539Z,79.60
2019-03-12T02:10:15.821Z,79.70
2019-03-12T02:12:45.015Z,79.70
2019-03-12T02:15:15.587Z,79.70
2019-03-12T02:17:44.882Z,79.70
2019-03-12T02:20:17.273Z,79.60
2019-03-12T02:22:46.569Z,79.60
2019-03-12T02:25:17.196Z,79.60
2019-03-12T02:27:46.424Z,79.60
2019-03-12T02:30:20.547Z,79.60
2019-03-12T02:32:49.862Z,79.80
2019-03-12T02:35:19.123Z,80.00
2019-03-12T02:37:48.348Z,80.20
2019-03-12T02:40:17.731Z,80.40
2019-03-12T02:42:47.065Z,80.50
2019-03-12T02:45:16.704Z,80.50
2019-03-12T02:47:45.928Z,80.40
2019-03-12T02:50:16.240Z,80.30
2019-03-12T02:52:45.528Z,80.20
2019-03-12T02:55:14.798Z,80.40
2019-03-12T02:57:44.034Z,80.40
2019-03-12T03:00:20.049Z,80.40
2019-03-12T03:02:49.264Z,80.40
2019-03-12T03:05:18.923Z,80.50
2019-03-12T03:07:52.827Z,80.30
2019-03-12T03:10:22.419Z,80.40
2019-03-12T03:12:51.896Z,80.50
2019-03-12T03:15:31.170Z,80.50
2019-03-12T03:18:00.512Z,80.60
2019-03-12T03:20:29.740Z,80.50
2019-03-12T03:22:58.929Z,80.50
2019-03-12T03:25:28.158Z,80.50
2019-03-12T03:27:57.358Z,80.50
2019-03-12T03:30:26.585Z,80.50
2019-03-12T03:32:55.935Z,80.60
2019-03-12T03:35:25.143Z,80.60
2019-03-12T03:37:54.337Z,80.60
2019-03-12T03:40:23.581Z,80.60
2019-03-12T03:42:52.953Z,80.60
2019-03-12T03:45:22.259Z,80.60
2019-03-12T03:47:51.567Z,80.80
2019-03-12T03:50:20.884Z,80.80
2019-03-12T03:52:50.093Z,81.00
2019-03-12T03:55:20.924Z,81.00
2019-03-12T03:57:50.254Z,81.00
2019-03-12T04:00:25.609Z,81.00
2019-03-12T04:02:54.804Z,80.70
2019-03-12T04:05:24.024Z,80.60
2019-03-12T04:07:53.240Z,80.50
2019-03-12T04:10:22.615Z,80.30
2019-03-12T04:12:51.821Z,80.00
2019-03-12T04:15:21.109Z,79.80
2019-03-12T04:17:50.333Z,80.10
2019-03-12T04:20:19.629Z,80.40
2019-03-12T04:22:48.991Z,80.90
2019-03-12T04:25:18.332Z,81.00
2019-03-12T04:27:47.533Z,81.20
2019-03-12T04:30:17.995Z,81.30
2019-03-12T04:32:47.604Z,81.30
2019-03-12T04:35:22.688Z,81.40
2019-03-12T04:37:51.890Z,81.50
2019-03-12T04:40:21.177Z,81.50
2019-03-12T04:42:50.402Z,81.50
2019-03-12T04:45:19.588Z,81.40
2019-03-12T04:47:48.805Z,81.30
2019-03-12T04:50:18.006Z,80.90
2019-03-12T04:52:47.219Z,80.90
2019-03-12T04:55:16.965Z,80.70
2019-03-12T04:57:46.180Z,80.70
2019-03-12T05:00:19.920Z,80.70
2019-03-12T05:02:49.129Z,80.40
2019-03-12T05:05:19.407Z,79.80
2019-03-12T05:07:48.961Z,79.80
2019-03-12T05:10:18.276Z,80.10
2019-03-12T05:12:47.470Z,80.30
2019-03-12T05:15:17.863Z,80.30
2019-03-12T05:17:47.140Z,80.50
2019-03-12T05:20:16.579Z,80.60
2019-03-12T05:22:45.774Z,80.80
2019-03-12T05:25:15.529Z,80.70
2019-03-12T05:27:45.726Z,80.60
2019-03-12T05:30:19.346Z,80.40
2019-03-12T05:32:48.570Z,80.20
2019-03-12T05:35:17.764Z,80.20
2019-03-12T05:37:46.981Z,80.00
2019-03-12T05:40:16.818Z,79.80
2019-03-12T05:42:46.044Z,79.60
2019-03-12T05:45:19.585Z,79.60
2019-03-12T05:47:48.775Z,79.80
2019-03-12T05:50:20.008Z,79.90
2019-03-12T05:52:49.683Z,80.00
2019-03-12T05:55:19.074Z,80.20
2019-03-12T05:57:48.283Z,80.30
2019-03-12T06:00:20.510Z,80.30
2019-03-12T06:02:49.742Z,80.40
2019-03-12T06:05:18.960Z,80.50
2019-03-12T06:07:48.159Z,80.30
2019-03-12T06:10:17.569Z,80.20
2019-03-12T06:12:46.792Z,80.10
2019-03-12T06:15:16.753Z,80.10
2019-03-12T06:17:45.947Z,79.90
2019-03-12T06:20:15.717Z,79.90
2019-03-12T06:22:44.943Z,79.90
2019-03-12T06:25:15.019Z,79.70
2019-03-12T06:27:44.296Z,79.90
2019-03-12T06:30:17.723Z,80.00
2019-03-12T06:32:48.574Z,80.20
2019-03-12T06:35:19.412Z,80.30
2019-03-12T06:37:50.271Z,80.60
2019-03-12T06:40:27.130Z,81.20
2019-03-12T06:43:06.775Z,81.20
2019-03-12T06:45:40.619Z,81.30
2019-03-12T06:48:17.203Z,81.00
2019-03-12T06:51:00.317Z,80.60
2019-03-12T06:53:40.139Z,80.20
2019-03-12T06:56:27.901Z,79.90
2019-03-12T06:59:10.757Z,79.70
2019-03-12T07:01:44.535Z,79.80
2019-03-12T07:04:15.396Z,79.60
2019-03-12T07:07:00.806Z,79.40
2019-03-12T07:09:39.692Z,78.70
2019-03-12T07:12:13.321Z,78.00
2019-03-12T07:15:00.428Z,77.90
2019-03-12T07:17:48.213Z,77.40
2019-03-12T07:20:19.047Z,77.40
2019-03-12T07:22:52.571Z,77.10
2019-03-12T07:25:26.129Z,76.60
2019-03-12T07:28:15.152Z,76.10
2019-03-12T07:30:46.015Z,75.80
2019-03-12T07:33:22.876Z,75.10
2019-03-12T07:35:53.741Z,75.00
2019-03-12T07:38:39.861Z,75.00
2019-03-12T07:41:25.015Z,74.70
2019-03-12T07:44:01.114Z,74.90
2019-03-12T07:46:34.914Z,75.10
2019-03-12T07:49:22.057Z,75.20
2019-03-12T07:52:08.900Z,75.40
2019-03-12T07:54:39.892Z,75.50
2019-03-12T07:57:27.206Z,75.40
2019-03-12T07:59:58.039Z,75.20
2019-03-12T08:02:37.901Z,74.60
2019-03-12T08:05:09.324Z,74.30
2019-03-12T08:07:46.288Z,74.10
2019-03-12T08:10:33.797Z,74.10
2019-03-12T08:13:13.328Z,73.70
2019-03-12T08:15:44.194Z,73.40
2019-03-12T08:18:31.363Z,73.70
2019-03-12T08:21:05.304Z,73.50
2019-03-12T08:23:36.129Z,73.40
2019-03-12T08:26:12.740Z,72.90
2019-03-12T08:28:52.526Z,72.80
2019-03-12T08:31:32.657Z,72.50
2019-03-12T08:34:03.514Z,72.40
2019-03-12T08:36:43.376Z,72.10
2019-03-12T08:39:17.179Z,71.70
2019-03-12T08:41:48.040Z,71.30
2019-03-12T08:44:21.816Z,71.10
2019-03-12T08:47:08.333Z,71.20
2019-03-12T08:49:57.644Z,71.30
2019-03-12T08:52:30.963Z,70.50
2019-03-12T08:55:04.621Z,70.00
2019-03-12T08:57:38.155Z,70.40
2019-03-12T09:00:27.644Z,70.20
2019-03-12T09:03:10.360Z,69.60
2019-03-12T09:05:41.195Z,69.10
2019-03-12T09:08:23.855Z,69.70
2019-03-12T09:11:06.999Z,69.50
2019-03-12T09:13:43.748Z,69.10
2019-03-12T09:16:31.197Z,68.60
2019-03-12T09:19:02.049Z,68.90
2019-03-12T09:21:33.274Z,69.00
2019-03-12T09:24:04.111Z,68.50
2019-03-12T09:26:37.932Z,68.20
2019-03-12T09:29:25.232Z,68.20
2019-03-12T09:31:58.836Z,67.70
2019-03-12T09:34:29.700Z,66.80
2019-03-12T09:37:03.247Z,67.20
2019-03-12T09:39:43.269Z,67.40
2019-03-12T09:42:30.408Z,66.30
2019-03-12T09:45:17.531Z,66.20
2019-03-12T09:47:48.373Z,66.00
2019-03-12T09:50:25.173Z,66.00
2019-03-12T09:52:56.355Z,66.30
2019-03-12T09:55:39.173Z,65.90
2019-03-12T09:58:12.898Z,66.20
2019-03-12T10:00:43.729Z,66.00
2019-03-12T10:03:20.591Z,66.40
2019-03-12T10:05:54.150Z,66.00
2019-03-12T10:08:27.520Z,65.30
2019-03-12T10:11:01.182Z,64.80
2019-03-12T10:13:50.416Z,63.80
2019-03-12T10:16:33.328Z,63.20
2019-03-12T10:19:06.884Z,62.80
2019-03-12T10:21:43.320Z,62.60
2019-03-12T10:24:28.697Z,63.10
2019-03-12T10:26:58.567Z,62.60
2019-03-12T10:29:46.056Z,63.10
2019-03-12T10:32:26.034Z,63.00
2019-03-12T10:34:56.890Z,63.40
2019-03-12T10:37:30.687Z,63.90
2019-03-12T10:40:05.654Z,63.40
2019-03-12T10:43:05.057Z,63.40
2019-03-12T10:45:41.981Z,63.20
2019-03-12T10:48:12.614Z,63.20
2019-03-12T10:50:41.880Z,62.90
2019-03-12T10:53:11.162Z,62.70
2019-03-12T10:55:40.720Z,61.70
2019-03-12T10:58:09.952Z,61.60
2019-03-12T11:00:39.995Z,61.00
2019-03-12T11:03:09.224Z,60.80
2019-03-12T11:05:45.895Z,59.90
2019-03-12T11:08:09.546Z,59.60
2019-03-12T11:10:38.748Z,59.00
2019-03-12T11:13:08.292Z,58.60
2019-03-12T11:15:37.529Z,59.20
2019-03-12T11:18:06.724Z,59.10
2019-03-12T11:20:35.944Z,58.50
2019-03-12T11:23:05.143Z,58.10
2019-03-12T11:25:34.379Z,58.60
2019-03-12T11:28:03.582Z,57.90
2019-03-12T11:30:33.089Z,57.80
2019-03-12T11:33:02.289Z,58.30
2019-03-12T11:35:38.844Z,58.30
2019-03-12T11:38:02.624Z,57.30
2019-03-12T11:40:32.927Z,57.70
2019-03-12T11:43:02.539Z,57.90
2019-03-12T11:45:36.694Z,58.10
2019-03-12T11:48:04.320Z,57.90
2019-03-12T11:50:33.555Z,58.10
2019-03-12T11:53:02.818Z,58.00
2019-03-12T11:55:32.168Z,57.60
2019-03-12T11:58:01.380Z,57.30
2019-03-12T12:00:35.477Z,56.60
2019-03-12T12:03:04.935Z,56.30
2019-03-12T12:05:34.163Z,56.10
2019-03-12T12:08:03.493Z,55.90
2019-03-12T12:10:32.833Z,56.20
2019-03-12T12:13:02.060Z,56.80
2019-03-12T12:15:31.535Z,56.90
2019-03-12T12:18:01.091Z,56.80
2019-03-12T12:20:30.640Z,56.60
2019-03-12T12:23:00.008Z,56.40
2019-03-12T12:25:30.311Z,55.50
2019-03-12T12:27:59.516Z,55.50
2019-03-12T12:30:28.750Z,55.40
2019-03-12T12:32:57.975Z,56.10
2019-03-12T12:35:27.198Z,56.10
2019-03-12T12:37:56.400Z,56.20
2019-03-12T12:40:25.632Z,56.00
2019-03-12T12:42:54.859Z,56.30
2019-03-12T12:45:26.576Z,56.40
2019-03-12T12:47:55.806Z,55.60
2019-03-12T12:50:25.010Z,55.60
2019-03-12T12:52:54.305Z,55.60
2019-03-12T12:55:23.511Z,55.80
2019-03-12T12:57:52.735Z,56.10
2019-03-12T13:00:23.680Z,55.70
2019-03-12T13:02:52.905Z,58.60
2019-03-12T13:05:22.293Z,57.80
2019-03-12T13:07:51.501Z,55.40
2019-03-12T13:10:25.538Z,54.30
2019-03-12T13:12:54.832Z,54.80
2019-03-12T13:15:24.316Z,54.90
2019-03-12T13:17:53.686Z,54.90
2019-03-12T13:20:22.908Z,54.20
2019-03-12T13:22:52.175Z,54.40
2019-03-12T13:25:22.448Z,54.70
2019-03-12T13:27:51.673Z,53.50
2019-03-12T13:30:21.735Z,53.10
2019-03-12T13:32:51.083Z,52.40
2019-03-12T13:35:21.385Z,52.60
2019-03-12T13:37:50.652Z,53.30
2019-03-12T13:40:24.690Z,53.20
2019-03-12T13:42:54.248Z,53.30
2019-03-12T13:45:29.341Z,53.50
2019-03-12T13:47:58.726Z,53.80
2019-03-12T13:50:28.258Z,53.70
2019-03-12T13:52:58.077Z,53.40
2019-03-12T13:55:27.507Z,53.20
2019-03-12T13:57:56.790Z,53.60
2019-03-12T14:00:27.316Z,54.00
2019-03-12T14:02:56.567Z,54.00
2019-03-12T14:05:25.795Z,54.30
2019-03-12T14:07:55.002Z,54.90
2019-03-12T14:10:24.671Z,54.40
2019-03-12T14:12:55.039Z,53.90
2019-03-12T14:15:34.489Z,53.40
2019-03-12T14:18:03.708Z,54.70
2019-03-12T14:20:41.018Z,56.50
2019-03-12T14:23:25.153Z,56.70
2019-03-12T14:25:54.387Z,56.20
2019-03-12T14:28:23.685Z,56.10
2019-03-12T14:30:52.967Z,56.10
2019-03-12T14:33:22.203Z,56.00
2019-03-12T14:35:52.393Z,56.10
2019-03-12T14:38:21.904Z,56.50
2019-03-12T14:40:51.224Z,56.40
2019-03-12T14:43:20.501Z,56.70
2019-03-12T14:45:51.367Z,56.70
2019-03-12T14:48:41.281Z,57.00
2019-03-12T14:51:28.804Z,56.80
2019-03-12T14:54:08.198Z,56.80
2019-03-12T14:56:38.391Z,56.40
2019-03-12T14:59:07.636Z,56.40
2019-03-12T15:01:36.867Z,56.00
2019-03-12T15:04:06.145Z,56.00
2019-03-12T15:06:35.387Z,55.80
2019-03-12T15:09:10.676Z,55.70
2019-03-12T15:11:41.332Z,55.70
2019-03-12T15:14:10.537Z,55.60
2019-03-12T15:16:40.108Z,55.60
2019-03-12T15:19:09.330Z,55.90
2019-03-12T15:21:38.558Z,56.10
2019-03-12T15:24:07.844Z,56.30
2019-03-12T15:26:37.048Z,56.30
2019-03-12T15:29:06.296Z,56.60
2019-03-12T15:31:35.503Z,56.60
2019-03-12T15:34:04.708Z,56.60
2019-03-12T15:36:33.940Z,56.40
2019-03-12T15:39:04.538Z,56.60
2019-03-12T15:41:35.378Z,56.80
2019-03-12T15:44:04.571Z,56.00
2019-03-12T15:46:33.799Z,56.20
2019-03-12T15:49:03.037Z,56.30
2019-03-12T15:51:32.575Z,56.10
2019-03-12T15:54:01.814Z,56.10
2019-03-12T15:56:31.013Z,56.10
2019-03-12T15:59:00.239Z,56.20
2019-03-12T16:01:29.439Z,56.00
2019-03-12T16:03:58.989Z,56.40
2019-03-12T16:06:28.226Z,56.60
2019-03-12T16:08:57.420Z,56.60
2019-03-12T16:11:26.676Z,56.60
2019-03-12T16:13:56.905Z,56.50
2019-03-12T16:16:26.246Z,56.70
2019-03-12T16:18:55.504Z,56.80
2019-03-12T16:21:24.733Z,57.20
2019-03-12T16:23:54.225Z,57.30
2019-03-12T16:26:24.519Z,57.40
2019-03-12T16:28:53.753Z,57.20
2019-03-12T16:31:22.960Z,57.20
2019-03-12T16:33:52.184Z,57.40
2019-03-12T16:36:21.392Z,57.50
2019-03-12T16:38:50.631Z,57.40
2019-03-12T16:41:20.926Z,57.20
2019-03-12T16:43:50.126Z,57.10
2019-03-12T16:46:19.347Z,57.20
2019-03-12T16:48:48.817Z,56.90
2019-03-12T16:51:18.047Z,57.10
2019-03-12T16:53:47.584Z,57.10
2019-03-12T16:56:16.803Z,57.10
2019-03-12T16:58:46.291Z,57.10
2019-03-12T17:01:15.508Z,56.50
2019-03-12T17:03:44.724Z,56.60
2019-03-12T17:06:13.931Z,56.30
2019-03-12T17:08:44.118Z,56.30
2019-03-12T17:11:13.317Z,56.40
2019-03-12T17:13:42.537Z,56.40
2019-03-12T17:16:11.732Z,56.40
2019-03-12T17:18:40.951Z,56.30
2019-03-12T17:21:10.179Z,55.90
2019-03-12T17:23:39.405Z,55.80
2019-03-12T17:26:08.916Z,56.20
2019-03-12T17:28:38.145Z,55.80
2019-03-12T17:31:07.331Z,55.60
2019-03-12T17:33:36.560Z,55.50
2019-03-12T17:36:06.742Z,55.40
2019-03-12T17:38:46.151Z,55.70
2019-03-12T17:41:06.852Z,55.20
2019-03-12T17:43:36.146Z,55.20
2019-03-12T17:46:05.689Z,55.30
2019-03-12T17:48:34.885Z,55.00
2019-03-12T17:51:04.100Z,55.00
2019-03-12T17:53:33.297Z,54.70
2019-03-12T17:56:02.520Z,54.70
2019-03-12T17:58:31.744Z,54.80
2019-03-12T18:01:00.964Z,54.70
2019-03-12T18:03:30.156Z,54.70
2019-03-12T18:05:59.358Z,54.50
2019-03-12T18:08:28.552Z,54.10
2019-03-12T18:10:57.783Z,54.10
2019-03-12T18:13:27.079Z,54.00
2019-03-12T18:15:56.279Z,53.90
2019-03-12T18:18:25.502Z,53.80
2019-03-12T18:20:54.725Z,53.90
2019-03-12T18:23:23.953Z,53.40
2019-03-12T18:25:53.147Z,53.30
2019-03-12T18:28:22.375Z,53.00
2019-03-12T18:30:52.658Z,53.00
2019-03-12T18:33:21.884Z,53.10
2019-03-12T18:35:51.118Z,52.90
2019-03-12T18:38:20.323Z,53.60
2019-03-12T18:40:49.558Z,54.60
2019-03-12T18:43:18.784Z,53.00
2019-03-12T18:45:48.031Z,53.30
2019-03-12T18:48:17.523Z,53.40
2019-03-12T18:50:47.023Z,53.20
2019-03-12T18:53:16.219Z,53.40
2019-03-12T18:55:47.372Z,53.70
2019-03-12T18:58:16.571Z,53.60
2019-03-12T19:01:05.507Z,53.60
2019-03-12T19:03:34.722Z,53.80
2019-03-12T19:06:03.960Z,54.00
2019-03-12T19:08:33.180Z,54.00
2019-03-12T19:11:02.392Z,54.50
2019-03-12T19:13:31.624Z,54.30
2019-03-12T19:16:00.856Z,54.50
2019-03-12T19:18:30.161Z,54.80
2019-03-12T19:20:59.370Z,54.60
2019-03-12T19:23:28.946Z,54.60
2019-03-12T19:25:58.151Z,54.70
2019-03-12T19:28:27.387Z,54.80
2019-03-12T19:30:58.242Z,54.70
2019-03-12T19:33:29.760Z,54.50
2019-03-12T19:35:58.962Z,54.80
2019-03-12T19:38:28.395Z,54.60
2019-03-12T19:40:58.505Z,55.20
2019-03-12T19:43:28.064Z,54.90
2019-03-12T19:45:57.266Z,55.20
2019-03-12T19:48:26.582Z,55.30
2019-03-12T19:50:55.788Z,55.10
2019-03-12T19:53:25.017Z,55.50
2019-03-12T19:55:57.456Z,55.70
2019-03-12T19:58:28.505Z,55.80
2019-03-12T20:00:57.689Z,55.60
2019-03-12T20:03:27.303Z,59.40
2019-03-12T20:05:56.632Z,55.80
2019-03-12T20:08:25.845Z,55.50
2019-03-12T20:11:14.837Z,55.60
2019-03-12T20:14:03.602Z,55.60
2019-03-12T20:17:08.119Z,55.80
2019-03-12T20:19:48.246Z,55.00
2019-03-12T20:22:54.241Z,55.20
2019-03-12T20:25:55.287Z,55.20
2019-03-12T20:28:45.718Z,54.70
2019-03-12T20:31:30.570Z,55.00
2019-03-12T20:34:36.757Z,54.90
2019-03-12T20:37:26.035Z,54.90
2019-03-12T20:40:15.072Z,55.00
2019-03-12T20:42:53.194Z,55.00
2019-03-12T20:45:46.891Z,55.00
2019-03-12T20:48:38.884Z,55.40
2019-03-12T20:51:31.912Z,55.50
2019-03-12T20:54:13.336Z,55.50
2019-03-12T20:57:17.614Z,55.90
2019-03-12T20:59:59.236Z,59.50
2019-03-12T21:03:04.944Z,56.50
2019-03-12T21:05:53.723Z,56.40
2019-03-12T21:08:33.099Z,56.40
2019-03-12T21:11:17.667Z,56.70
2019-03-12T21:14:26.311Z,56.90
2019-03-12T21:17:01.393Z,57.10
2019-03-12T21:20:08.818Z,57.20
2019-03-12T21:22:53.687Z,57.40
2019-03-12T21:25:56.376Z,57.50
2019-03-12T21:28:48.315Z,57.50
2019-03-12T21:31:17.595Z,57.70
2019-03-12T21:33:47.128Z,57.80
2019-03-12T21:36:16.487Z,58.00
2019-03-12T21:38:45.736Z,58.00
2019-03-12T21:41:15.022Z,58.00
2019-03-12T21:43:44.462Z,57.90
2019-03-12T21:46:13.691Z,58.00
2019-03-12T21:48:42.983Z,58.20
2019-03-12T21:51:12.222Z,58.00
2019-03-12T21:53:41.442Z,58.20
2019-03-12T21:56:10.745Z,58.40
2019-03-12T21:58:39.975Z,58.20
2019-03-12T22:01:10.290Z,58.20
2019-03-12T22:03:39.498Z,58.10
2019-03-12T22:06:08.723Z,58.10
2019-03-12T22:08:37.939Z,58.40
2019-03-12T22:11:07.456Z,58.10
2019-03-12T22:13:36.670Z,59.00
2019-03-12T22:16:06.164Z,58.40
2019-03-12T22:18:35.434Z,58.00
2019-03-12T22:21:04.711Z,58.30
2019-03-12T22:23:41.506Z,58.40
2019-03-12T22:26:10.717Z,58.10
2019-03-12T22:28:39.951Z,57.50
2019-03-12T22:31:09.224Z,57.80
2019-03-12T22:33:38.451Z,57.90
2019-03-12T22:36:07.660Z,58.10
2019-03-12T22:38:36.896Z,58.60
2019-03-12T22:41:06.144Z,58.70
2019-03-12T22:43:35.489Z,58.80
2019-03-12T22:46:04.687Z,58.50
2019-03-12T22:48:33.922Z,58.60
2019-03-12T22:51:03.187Z,59.40
2019-03-12T22:53:32.405Z,61.70
2019-03-12T22:56:01.628Z,65.20
2019-03-12T22:58:30.924Z,67.10
2019-03-12T23:01:18.203Z,69.00
2019-03-12T23:04:05.259Z,70.90
2019-03-12T23:06:52.327Z,72.30
2019-03-12T23:09:39.323Z,72.90
2019-03-12T23:12:10.464Z,73.10
2019-03-12T23:14:41.303Z,73.00
2019-03-12T23:17:12.188Z,72.40
2019-03-12T23:19:42.997Z,72.60
2019-03-12T23:22:12.297Z,72.80
2019-03-12T23:24:41.787Z,73.10
2019-03-12T23:27:11.052Z,73.30
2019-03-12T23:29:40.271Z,73.50
2019-03-12T23:32:10.316Z,73.80
2019-03-12T23:34:39.592Z,75.00
2019-03-12T23:37:08.811Z,77.80
2019-03-12T23:39:38.010Z,80.90
2019-03-12T23:42:07.501Z,82.80
2019-03-12T23:44:36.691Z,82.40
2019-03-12T23:47:05.911Z,82.90
2019-03-12T23:49:35.117Z,82.10
2019-03-12T23:52:04.333Z,82.50
2019-03-12T23:54:34.499Z,82.60
2019-03-12T23:57:03.716Z,83.00
2019-03-12T23:59:32.911Z,83.20
